Time;durP1;ratioP1;P1;durP2;ratioP2;P2;SDS_P1;SDS_P2;PMS_P1;PMS_P2;Temp;Humidity;BMP_temperature;BMP_pressure;BME280_temperature;BME280_humidity;BME280_pressure;Samples;Min_cycle;Max_cycle;Signal;HPM_P1;HPM_P2
2022/11/27 05:02:57;;;;;;;5.13;1.08;;;0.90;99.90;;;;;;5022638;23;88792;-78
2022/11/27 05:05:23;;;;;;;5.22;0.82;;;0.80;99.90;;;;;;4818152;29;86669;-78
2022/11/27 05:07:48;;;;;;;3.97;0.77;;;0.80;99.90;;;;;;4820421;29;87164;-78
2022/11/27 05:10:14;;;;;;;4.63;0.88;;;0.80;99.90;;;;;;4816228;29;86787;-78
2022/11/27 05:12:39;;;;;;;4.53;1.10;;;0.80;99.90;;;;;;4817391;29;86270;-79
2022/11/27 05:15:06;;;;;;;3.92;1.02;;;0.90;99.90;;;;;;4815764;29;86834;-82
2022/11/27 05:17:31;;;;;;;3.38;1.08;;;0.90;99.90;;;;;;4814924;29;86534;-80
2022/11/27 05:19:57;;;;;;;2.90;1.00;;;0.90;99.90;;;;;;4818426;29;86277;-82
2022/11/27 05:22:23;;;;;;;3.80;1.20;;;0.90;99.90;;;;;;4819062;29;87218;-81
2022/11/27 05:24:48;;;;;;;5.65;1.17;;;0.90;99.90;;;;;;4819220;29;86337;-81
2022/11/27 05:27:14;;;;;;;4.88;1.30;;;0.90;99.90;;;;;;4817621;29;87579;-80
2022/11/27 05:29:40;;;;;;;6.72;1.17;;;0.80;99.90;;;;;;4821285;29;88222;-81
2022/11/27 05:32:06;;;;;;;6.60;1.77;;;0.80;99.90;;;;;;4817974;29;86432;-81
2022/11/27 05:34:31;;;;;;;4.50;1.20;;;0.70;99.90;;;;;;4815978;29;86310;-82
2022/11/27 05:36:57;;;;;;;4.40;1.15;;;0.70;99.90;;;;;;4819205;29;87659;-81
2022/11/27 05:39:23;;;;;;;4.10;0.90;;;0.70;99.90;;;;;;4818831;29;86518;-84
2022/11/27 05:41:49;;;;;;;5.93;1.10;;;0.70;99.90;;;;;;4818514;29;86377;-83
2022/11/27 05:44:14;;;;;;;3.17;0.82;;;0.70;99.90;;;;;;4818005;29;86439;-82
2022/11/27 05:46:44;;;;;;;3.42;0.80;;;0.70;99.90;;;;;;4817156;29;87166;-84
2022/11/27 05:49:12;;;;;;;4.05;0.88;;;0.70;99.90;;;;;;4816857;29;86264;-80
2022/11/27 05:51:38;;;;;;;3.85;0.80;;;0.70;99.90;;;;;;4817561;29;87153;-79
2022/11/27 05:54:04;;;;;;;4.60;0.95;;;0.70;99.90;;;;;;4823215;29;86646;-78
2022/11/27 05:56:30;;;;;;;4.10;1.40;;;0.70;99.90;;;;;;4818427;29;87038;-80
2022/11/27 05:58:56;;;;;;;3.35;0.80;;;0.70;99.90;;;;;;4817449;29;87513;-80
2022/11/27 06:01:21;;;;;;;2.58;0.73;;;0.80;99.90;;;;;;4818956;29;86406;-80
2022/11/27 06:03:47;;;;;;;4.22;0.80;;;0.80;99.90;;;;;;4821069;29;86294;-78
2022/11/27 06:06:18;;;;;;;3.67;0.60;;;0.80;99.90;;;;;;4819468;29;86366;-78
2022/11/27 06:08:45;;;;;;;3.72;1.00;;;0.80;99.90;;;;;;4818394;29;86430;-78
2022/11/27 06:11:16;;;;;;;3.70;1.13;;;0.80;99.90;;;;;;4818723;29;86302;-82
2022/11/27 06:13:42;;;;;;;5.57;1.42;;;0.70;99.90;;;;;;4822488;29;86459;-81
2022/11/27 06:16:11;;;;;;;7.88;1.35;;;0.70;99.90;;;;;;4820108;29;88208;-80
2022/11/27 06:18:37;;;;;;;6.95;1.48;;;0.60;99.90;;;;;;4817221;29;87720;-78
2022/11/27 06:21:11;;;;;;;4.95;1.50;;;0.60;99.90;;;;;;4817258;29;86353;-79
2022/11/27 06:23:38;;;;;;;5.57;1.30;;;0.60;99.90;;;;;;4815045;29;86317;-80
2022/11/27 06:26:10;;;;;;;5.30;1.50;;;0.60;99.90;;;;;;4823177;29;87190;-79
2022/11/27 06:28:36;;;;;;;3.63;1.35;;;0.60;99.90;;;;;;4815597;29;86326;-79
2022/11/27 06:31:14;;;;;;;6.65;1.30;;;0.60;99.90;;;;;;4812178;29;86290;-81
2022/11/27 06:33:40;;;;;;;4.10;1.33;;;0.60;99.90;;;;;;4815825;29;86221;-80
2022/11/27 06:36:06;;;;;;;5.95;1.52;;;0.50;99.90;;;;;;4819752;29;86790;-80
2022/11/27 06:38:33;;;;;;;5.60;1.33;;;0.50;99.90;;;;;;4813555;29;87040;-77
2022/11/27 06:41:11;;;;;;;5.28;1.67;;;0.50;99.90;;;;;;4819806;29;87246;-78
2022/11/27 06:43:37;;;;;;;6.80;1.52;;;0.50;99.90;;;;;;4817843;29;87048;-78
2022/11/27 06:46:04;;;;;;;7.65;1.40;;;0.50;99.90;;;;;;4817209;29;86526;-78
2022/11/27 06:48:30;;;;;;;6.80;1.38;;;0.50;99.90;;;;;;4815541;29;87065;-77
2022/11/27 06:51:05;;;;;;;5.10;1.13;;;0.60;99.90;;;;;;4817275;29;86248;-77
2022/11/27 06:53:32;;;;;;;4.90;1.20;;;0.60;99.90;;;;;;4819203;29;86222;-78
2022/11/27 06:55:57;;;;;;;4.68;1.63;;;0.60;99.90;;;;;;4814931;29;86986;-79
2022/11/27 06:58:23;;;;;;;6.57;1.10;;;0.70;99.90;;;;;;4815637;29;86033;-79
2022/11/27 07:00:49;;;;;;;9.50;1.20;;;0.80;99.90;;;;;;4819327;29;86389;-79
2022/11/27 07:03:15;;;;;;;4.57;1.45;;;0.90;99.90;;;;;;4818426;29;86314;-79
2022/11/27 07:05:40;;;;;;;7.85;2.97;;;1.00;99.90;;;;;;4819562;29;87492;-79
2022/11/27 07:08:06;;;;;;;4.20;1.42;;;1.00;99.00;;;;;;4819182;29;87266;-80
2022/11/27 07:10:34;;;;;;;3.78;1.30;;;1.10;99.10;;;;;;4818419;29;86370;-79
2022/11/27 07:13:00;;;;;;;10.95;4.20;;;1.20;98.50;;;;;;4820250;29;86671;-79
2022/11/27 07:15:25;;;;;;;58.05;21.55;;;1.30;98.60;;;;;;4820650;29;87761;-79
2022/11/27 07:17:51;;;;;;;17.23;7.18;;;1.60;98.90;;;;;;4818660;29;87582;-82
2022/11/27 07:20:17;;;;;;;12.40;5.13;;;2.30;97.50;;;;;;4820486;29;86753;-82
2022/11/27 07:22:42;;;;;;;9.88;3.35;;;3.50;95.40;;;;;;4818456;29;85578;-83
2022/11/27 07:25:08;;;;;;;10.95;3.83;;;4.60;92.30;;;;;;4819874;29;86972;-83
2022/11/27 07:27:34;;;;;;;9.30;2.92;;;5.50;89.80;;;;;;4820283;29;87269;-79
2022/11/27 07:29:59;;;;;;;10.10;3.10;;;6.20;83.10;;;;;;4818536;29;87241;-79
2022/11/27 07:32:25;;;;;;;11.80;3.95;;;6.70;81.50;;;;;;4801590;29;87181;-80
2022/11/27 07:34:51;;;;;;;10.90;3.70;;;7.00;79.40;;;;;;4820681;29;87064;-80
2022/11/27 07:37:16;;;;;;;9.20;3.53;;;7.50;75.50;;;;;;4821279;29;87434;-80
2022/11/27 07:39:42;;;;;;;9.73;5.05;;;7.40;74.10;;;;;;4819162;29;86622;-81
2022/11/27 07:42:08;;;;;;;9.98;4.80;;;7.50;75.20;;;;;;4816769;29;86329;-84
2022/11/27 07:44:33;;;;;;;8.65;4.53;;;7.50;76.10;;;;;;4816413;29;86718;-84
2022/11/27 07:46:59;;;;;;;7.07;3.28;;;7.40;74.30;;;;;;4818797;29;86621;-79
2022/11/27 07:49:25;;;;;;;9.93;4.20;;;7.10;75.90;;;;;;4819556;29;86302;-79
2022/11/27 07:51:50;;;;;;;9.10;3.50;;;6.80;77.50;;;;;;4819486;29;87017;-79
2022/11/27 07:54:16;;;;;;;7.05;2.80;;;6.60;78.20;;;;;;4820363;29;88574;-79
2022/11/27 07:56:42;;;;;;;10.80;3.90;;;6.30;79.00;;;;;;4813110;29;88002;-79
2022/11/27 07:59:07;;;;;;;9.50;3.95;;;6.30;79.40;;;;;;4810624;29;86787;-82
2022/11/27 08:01:33;;;;;;;7.50;2.63;;;6.20;80.10;;;;;;4812302;29;86476;-81
2022/11/27 08:03:59;;;;;;;7.00;2.42;;;6.00;80.20;;;;;;4818336;29;87290;-81
2022/11/27 08:06:26;;;;;;;8.20;2.42;;;5.80;81.20;;;;;;4816393;29;86863;-82
2022/11/27 08:08:55;;;;;;;6.43;2.50;;;5.80;82.00;;;;;;4813324;29;86310;-82
2022/11/27 08:11:30;;;;;;;7.25;2.90;;;5.70;82.40;;;;;;4810651;29;86286;-83
2022/11/27 08:13:58;;;;;;;7.28;3.20;;;5.70;82.70;;;;;;4813104;29;87304;-78
2022/11/27 08:16:25;;;;;;;10.52;4.80;;;5.70;82.70;;;;;;4810346;29;87625;-78
2022/11/27 08:18:51;;;;;;;8.45;3.53;;;5.70;83.10;;;;;;4813192;29;88471;-77
2022/11/27 08:21:17;;;;;;;5.43;1.70;;;5.90;83.10;;;;;;4813739;29;86633;-78
2022/11/27 08:23:43;;;;;;;5.40;2.15;;;7.00;81.30;;;;;;4815673;29;87751;-78
2022/11/27 08:26:10;;;;;;;6.03;1.98;;;8.70;76.40;;;;;;4811082;29;87191;-79
2022/11/27 08:28:37;;;;;;;3.45;1.45;;;10.80;69.90;;;;;;4816166;29;86271;-79
2022/11/27 08:31:05;;;;;;;4.43;1.30;;;11.10;64.30;;;;;;4819464;29;86502;-79
2022/11/27 08:33:31;;;;;;;5.07;1.50;;;10.50;66.90;;;;;;4817129;29;87749;-79
2022/11/27 08:35:57;;;;;;;3.25;1.27;;;10.00;66.90;;;;;;4818485;29;87128;-79
2022/11/27 08:38:23;;;;;;;3.35;1.40;;;9.70;67.80;;;;;;4818178;29;86740;-77
2022/11/27 08:40:57;;;;;;;2.67;1.13;;;9.70;68.80;;;;;;4816460;29;87068;-79
2022/11/27 08:43:23;;;;;;;2.95;1.02;;;9.80;67.80;;;;;;4815664;29;88630;-78
2022/11/27 08:45:49;;;;;;;3.60;1.50;;;9.60;67.80;;;;;;4817051;29;87327;-78
2022/11/27 08:48:16;;;;;;;3.47;1.00;;;8.90;69.40;;;;;;4817256;29;86666;-78
2022/11/27 08:50:41;;;;;;;2.80;1.05;;;8.60;70.10;;;;;;4816248;29;86286;-78
2022/11/27 08:53:07;;;;;;;3.63;1.40;;;8.20;71.60;;;;;;4819046;29;87639;-78
2022/11/27 08:55:33;;;;;;;3.92;0.90;;;8.00;72.90;;;;;;4817762;29;87411;-79
2022/11/27 08:57:58;;;;;;;2.83;0.68;;;7.50;73.10;;;;;;4816948;29;86577;-78
2022/11/27 09:00:24;;;;;;;2.80;0.80;;;7.10;73.50;;;;;;4818908;29;85892;-78
2022/11/27 09:02:50;;;;;;;4.18;0.70;;;6.70;74.30;;;;;;4817891;29;87203;-78
2022/11/27 09:05:17;;;;;;;7.47;1.08;;;6.30;75.40;;;;;;4819024;29;86626;-77
2022/11/27 09:07:42;;;;;;;4.72;1.50;;;6.20;77.10;;;;;;4816451;29;87198;-78
2022/11/27 09:10:09;;;;;;;3.88;1.05;;;6.30;77.60;;;;;;4815634;29;86884;-78
2022/11/27 09:12:34;;;;;;;3.63;0.80;;;6.60;76.90;;;;;;4818647;29;86888;-77
2022/11/27 09:15:00;;;;;;;3.78;0.90;;;6.90;75.10;;;;;;4814287;29;88531;-77
2022/11/27 09:17:26;;;;;;;2.42;0.60;;;7.00;74.80;;;;;;4817425;29;86692;-77
2022/11/27 09:19:51;;;;;;;3.47;0.60;;;7.20;74.80;;;;;;4820706;29;87000;-78
2022/11/27 09:22:17;;;;;;;3.20;0.75;;;7.40;74.10;;;;;;4814748;29;87363;-78
2022/11/27 09:24:43;;;;;;;2.90;0.80;;;7.80;73.20;;;;;;4816213;29;87085;-78
2022/11/27 09:27:09;;;;;;;4.07;1.23;;;8.90;70.70;;;;;;4817603;29;86267;-78
2022/11/27 09:29:35;;;;;;;3.63;1.60;;;9.90;68.30;;;;;;4814219;29;86785;-79
2022/11/27 09:32:01;;;;;;;7.03;2.72;;;10.20;66.40;;;;;;4815049;29;88201;-79
2022/11/27 09:34:26;;;;;;;7.90;3.03;;;10.40;67.80;;;;;;4816081;29;87116;-78
2022/11/27 09:36:52;;;;;;;5.90;2.90;;;10.50;68.90;;;;;;4818043;29;86698;-78
2022/11/27 09:39:19;;;;;;;5.70;2.97;;;12.40;66.10;;;;;;4818201;29;86249;-79
2022/11/27 09:42:34;;;;;;;5.68;2.80;;;13.80;60.50;;;;;;4817186;29;87140;-79
2022/11/27 09:45:01;;;;;;;5.68;3.25;;;14.20;58.90;;;;;;4810471;29;87396;-79
2022/11/27 09:47:40;;;;;;;5.65;3.05;;;14.30;58.70;;;;;;4814501;29;87362;-79
2022/11/27 09:50:16;;;;;;;6.53;3.30;;;14.30;58.30;;;;;;4817839;29;86260;-78
2022/11/27 09:52:48;;;;;;;6.38;3.13;;;13.80;59.00;;;;;;4818519;29;87286;-78
2022/11/27 09:55:17;;;;;;;8.63;4.68;;;13.50;60.50;;;;;;4816996;29;87993;-78
2022/11/27 09:57:51;;;;;;;10.27;6.00;;;12.40;61.70;;;;;;4814765;29;87704;-79
2022/11/27 10:00:19;;;;;;;9.40;4.18;;;11.60;65.10;;;;;;4815919;29;86959;-78
2022/11/27 10:02:45;;;;;;;10.10;3.92;;;10.90;66.90;;;;;;4807774;29;87240;-78
2022/11/27 10:05:23;;;;;;;7.20;4.00;;;10.20;68.60;;;;;;4808788;29;87487;-78
2022/11/27 10:08:07;;;;;;;9.18;3.80;;;9.60;71.40;;;;;;4812877;29;86328;-78
2022/11/27 10:10:57;;;;;;;6.80;3.75;;;9.40;72.40;;;;;;4818159;29;86764;-79
2022/11/27 10:14:02;;;;;;;7.45;3.90;;;9.30;72.60;;;;;;4808889;29;87746;-78
2022/11/27 10:16:44;;;;;;;10.25;3.97;;;8.80;74.50;;;;;;4816786;29;86721;-78
2022/11/27 10:19:25;;;;;;;7.18;3.47;;;8.50;75.70;;;;;;4815854;29;86971;-78
2022/11/27 10:22:02;;;;;;;8.07;3.83;;;8.40;76.40;;;;;;4817428;29;86765;-78
2022/11/27 10:24:47;;;;;;;7.45;3.20;;;8.30;76.50;;;;;;4816584;29;88414;-79
2022/11/27 10:27:24;;;;;;;7.00;2.92;;;8.10;77.00;;;;;;4813381;29;87638;-78
2022/11/27 10:29:52;;;;;;;6.07;3.10;;;8.10;77.00;;;;;;4810241;29;86330;-80
2022/11/27 10:32:22;;;;;;;6.43;2.88;;;8.00;76.80;;;;;;4808449;29;86774;-79
2022/11/27 10:34:56;;;;;;;6.97;3.30;;;7.90;77.40;;;;;;4815476;29;87128;-81
2022/11/27 10:37:27;;;;;;;7.15;3.33;;;7.70;78.50;;;;;;4818756;29;87232;-80
2022/11/27 10:39:57;;;;;;;7.57;3.10;;;7.50;79.00;;;;;;4811310;29;87578;-81
2022/11/27 10:42:53;;;;;;;5.82;3.13;;;7.40;79.80;;;;;;4813442;29;85566;-80
2022/11/27 10:45:39;;;;;;;7.57;3.33;;;7.10;80.90;;;;;;4818740;29;87053;-78
2022/11/27 10:48:05;;;;;;;7.88;3.60;;;7.00;82.20;;;;;;4813842;29;86759;-80
2022/11/27 10:50:32;;;;;;;8.32;3.58;;;6.90;82.70;;;;;;4822905;29;87187;-80
2022/11/27 10:53:23;;;;;;;6.18;3.38;;;6.90;82.80;;;;;;4817628;29;87768;-80
2022/11/27 10:56:01;;;;;;;6.10;3.45;;;7.00;82.30;;;;;;4814666;29;86819;-81
2022/11/27 10:58:32;;;;;;;7.55;3.15;;;6.90;82.90;;;;;;4816062;29;87442;-80
2022/11/27 11:01:07;;;;;;;6.82;3.22;;;6.90;83.50;;;;;;4819893;29;86284;-81
2022/11/27 11:03:33;;;;;;;6.13;2.80;;;6.90;83.70;;;;;;4818126;29;86655;-80
2022/11/27 11:06:04;;;;;;;6.80;3.08;;;6.80;83.70;;;;;;4818573;29;88194;-82
2022/11/27 11:08:30;;;;;;;;;;;6.80;83.60;;;;;;4821135;29;86943;-84
2022/11/27 11:10:56;;;;;;;5.60;2.65;;;6.90;83.70;;;;;;4817751;29;86268;-81
2022/11/27 11:13:30;;;;;;;5.80;2.83;;;6.90;83.30;;;;;;4817558;29;86303;-81
2022/11/27 11:16:05;;;;;;;6.57;2.72;;;6.90;83.20;;;;;;4814780;29;87717;-84
2022/11/27 11:18:41;;;;;;;6.78;3.35;;;6.90;82.20;;;;;;4810056;29;89813;-82
2022/11/27 11:21:15;;;;;;;8.00;3.30;;;6.80;82.80;;;;;;4812126;29;87454;-80
2022/11/27 11:23:41;;;;;;;7.47;3.13;;;6.80;83.70;;;;;;4816359;29;86260;-82
2022/11/27 11:26:22;;;;;;;6.13;2.80;;;6.70;83.70;;;;;;4817515;29;87172;-82
2022/11/27 11:28:52;;;;;;;8.05;2.78;;;6.90;84.30;;;;;;4814289;29;86480;-82
2022/11/27 11:31:21;;;;;;;6.57;2.50;;;6.90;83.20;;;;;;4813549;29;87371;-82
2022/11/27 11:33:58;;;;;;;6.53;2.60;;;6.90;81.60;;;;;;4816190;29;85995;-83
2022/11/27 11:36:23;;;;;;;5.40;2.30;;;6.90;80.90;;;;;;4817410;29;87025;-81
2022/11/27 11:38:51;;;;;;;4.82;2.15;;;6.90;81.50;;;;;;4812134;29;86253;-82
2022/11/27 11:41:17;;;;;;;6.80;2.38;;;6.90;80.50;;;;;;4818653;29;87349;-81
2022/11/27 11:43:55;;;;;;;6.05;2.65;;;6.90;79.60;;;;;;4817077;29;86377;-85
2022/11/27 11:46:28;;;;;;;6.13;2.50;;;6.90;83.40;;;;;;4822554;23;89670;-74
2022/11/27 11:49:00;;;;;;;5.85;2.20;;;7.00;81.50;;;;;;4809581;29;86756;-74
2022/11/27 11:52:05;;;;;;;4.93;2.17;;;7.00;80.20;;;;;;4812981;29;86385;-74
2022/11/27 11:54:54;;;;;;;6.18;2.38;;;7.10;79.00;;;;;;4798168;29;86569;-74
2022/11/27 11:57:56;;;;;;;4.93;2.03;;;7.20;80.00;;;;;;4808043;29;87003;-73
2022/11/27 12:00:26;;;;;;;5.25;2.20;;;7.30;78.00;;;;;;4810129;29;86195;-73
2022/11/27 12:03:12;;;;;;;4.32;1.95;;;7.30;78.50;;;;;;4812472;29;86826;-74
2022/11/27 12:05:44;;;;;;;5.68;2.10;;;7.30;78.40;;;;;;4806642;29;87919;-73
2022/11/27 12:08:13;;;;;;;4.78;2.10;;;7.40;78.40;;;;;;4807109;29;88572;-73
2022/11/27 12:11:03;;;;;;;5.70;2.28;;;7.50;78.10;;;;;;4807877;29;87807;-74
2022/11/27 12:13:47;;;;;;;4.90;2.05;;;7.60;76.30;;;;;;4801020;29;86966;-73
2022/11/27 12:16:30;;;;;;;5.63;2.13;;;7.70;75.10;;;;;;4806313;29;86371;-74
2022/11/27 12:19:41;;;;;;;4.88;1.83;;;7.60;74.30;;;;;;4804765;29;87559;-73
2022/11/27 12:22:16;;;;;;;4.95;1.90;;;7.70;74.20;;;;;;4798122;29;88006;-73
2022/11/27 12:24:42;;;;;;;4.35;1.98;;;7.60;72.70;;;;;;4807826;29;87401;-73
2022/11/27 12:27:22;;;;;;;5.47;2.42;;;7.50;73.90;;;;;;4811035;29;86200;-72
2022/11/27 12:30:01;;;;;;;5.53;1.98;;;7.50;73.90;;;;;;4811768;29;87346;-72
2022/11/27 12:32:51;;;;;;;4.13;1.70;;;7.50;74.80;;;;;;4808688;29;86549;-74
2022/11/27 12:35:26;;;;;;;5.40;1.85;;;7.50;74.10;;;;;;4806661;29;88127;-73
2022/11/27 12:38:31;;;;;;;5.95;2.08;;;7.50;73.40;;;;;;4803266;29;86358;-73
2022/11/27 12:41:34;;;;;;;4.30;1.83;;;7.50;75.00;;;;;;4798463;29;87185;-74
2022/11/27 12:44:00;;;;;;;;;;;7.40;74.80;;;;;;4802231;29;86689;-74
2022/11/27 12:47:19;;;;;;;6.05;1.83;;;7.40;73.60;;;;;;4803242;29;86885;-74
2022/11/27 12:49:50;;;;;;;4.07;1.45;;;7.40;74.90;;;;;;4781531;29;87338;-74
2022/11/27 12:52:28;;;;;;;4.03;1.67;;;7.40;75.20;;;;;;4805726;29;87220;-73
2022/11/27 12:55:29;;;;;;;5.13;1.90;;;7.20;73.40;;;;;;4803891;29;86973;-74
2022/11/27 12:58:06;;;;;;;7.28;1.90;;;7.30;74.20;;;;;;4769750;29;86821;-73
2022/11/27 13:00:36;;;;;;;4.43;1.92;;;7.30;75.50;;;;;;4805638;29;87149;-73
2022/11/27 13:03:05;;;;;;;5.65;1.75;;;7.30;75.50;;;;;;4795463;29;88026;-73
2022/11/27 13:05:45;;;;;;;5.50;1.88;;;7.30;76.60;;;;;;4806311;29;87918;-73
2022/11/27 13:08:29;;;;;;;5.05;2.00;;;7.30;74.50;;;;;;4811363;29;86241;-73
2022/11/27 13:11:09;;;;;;;6.50;2.15;;;7.20;75.80;;;;;;4809194;29;87067;-73
2022/11/27 13:13:48;;;;;;;5.18;1.90;;;7.20;76.20;;;;;;4809494;29;87196;-72
2022/11/27 13:16:25;;;;;;;4.45;1.83;;;7.10;76.30;;;;;;4802268;29;88123;-73
2022/11/27 13:19:15;;;;;;;4.82;1.83;;;7.20;76.90;;;;;;4806813;29;86598;-73
2022/11/27 13:21:44;;;;;;;4.78;1.88;;;7.20;77.50;;;;;;4810065;29;87377;-73
2022/11/27 13:24:12;;;;;;;8.95;3.00;;;7.30;76.70;;;;;;4808826;29;87365;-73
2022/11/27 13:26:56;;;;;;;7.30;3.20;;;7.30;76.90;;;;;;4801172;29;88275;-73
2022/11/27 13:29:28;;;;;;;9.18;3.20;;;7.40;80.10;;;;;;4795325;29;89015;-73
2022/11/27 13:32:00;;;;;;;6.88;3.17;;;7.40;80.20;;;;;;4810836;29;86827;-73
2022/11/27 13:34:28;;;;;;;6.65;3.30;;;7.40;80.80;;;;;;4804033;29;88332;-73
2022/11/27 13:37:01;;;;;;;9.60;3.53;;;7.40;80.80;;;;;;4808820;29;87093;-73
2022/11/27 13:39:39;;;;;;;7.05;3.13;;;7.40;81.50;;;;;;4810094;29;86323;-71
2022/11/27 13:42:16;;;;;;;6.80;3.38;;;7.40;81.70;;;;;;4807529;29;87043;-73
2022/11/27 13:44:51;;;;;;;7.85;3.58;;;7.40;81.50;;;;;;4811984;29;86589;-74
2022/11/27 13:47:19;;;;;;;6.60;2.80;;;7.40;81.20;;;;;;4808130;29;87017;-73
2022/11/27 13:49:46;;;;;;;8.10;3.00;;;7.30;81.10;;;;;;4807110;29;88466;-72
2022/11/27 13:52:18;;;;;;;7.28;3.30;;;7.30;81.10;;;;;;4812200;29;86796;-73
2022/11/27 13:54:53;;;;;;;7.55;3.67;;;7.30;81.70;;;;;;4816282;29;87944;-72
2022/11/27 13:57:20;;;;;;;8.15;3.42;;;7.30;82.40;;;;;;4815084;29;87107;-73
2022/11/27 14:00:03;;;;;;;6.07;3.33;;;7.20;82.80;;;;;;4812211;29;86629;-74
2022/11/27 14:02:49;;;;;;;7.43;2.92;;;7.20;83.30;;;;;;4814273;29;86338;-72
2022/11/27 14:05:18;;;;;;;6.82;3.13;;;7.20;84.20;;;;;;4795669;29;88590;-73
2022/11/27 14:07:49;;;;;;;6.57;3.22;;;7.20;84.60;;;;;;4814670;29;87061;-73
2022/11/27 14:10:21;;;;;;;8.50;3.45;;;7.20;84.70;;;;;;4812841;29;87868;-74
2022/11/27 14:12:57;;;;;;;8.52;3.50;;;7.20;85.70;;;;;;4816587;29;86007;-74
2022/11/27 14:15:25;;;;;;;7.45;3.72;;;7.20;85.90;;;;;;4816414;29;87322;-74
2022/11/27 14:18:02;;;;;;;7.65;3.47;;;7.10;85.90;;;;;;4812878;29;87104;-74
2022/11/27 14:20:33;;;;;;;6.15;3.10;;;7.10;86.30;;;;;;4817507;29;87631;-74
2022/11/27 14:23:00;;;;;;;8.10;3.45;;;7.10;86.10;;;;;;4807452;29;87061;-73
2022/11/27 14:25:32;;;;;;;6.75;3.42;;;7.10;86.60;;;;;;4814539;29;87546;-75
2022/11/27 14:28:04;;;;;;;8.15;3.80;;;7.10;86.70;;;;;;4814814;29;87026;-72
2022/11/27 14:30:38;;;;;;;8.07;3.40;;;7.10;86.50;;;;;;4815360;29;86691;-74
2022/11/27 14:33:14;;;;;;;7.57;3.38;;;7.00;86.60;;;;;;4811176;29;86266;-74
2022/11/27 14:35:40;;;;;;;8.25;3.85;;;7.00;86.90;;;;;;4813211;29;87280;-74
2022/11/27 14:38:10;;;;;;;6.35;3.33;;;7.00;86.90;;;;;;4815036;29;87056;-74
2022/11/27 14:40:36;;;;;;;7.93;3.83;;;7.00;86.60;;;;;;4813788;29;88235;-73
2022/11/27 14:43:28;;;;;;;8.88;4.20;;;7.10;86.80;;;;;;4814080;29;87113;-73
2022/11/27 14:46:00;;;;;;;9.43;3.42;;;7.10;86.40;;;;;;4810282;29;88320;-73
2022/11/27 14:48:46;;;;;;;7.38;3.75;;;7.10;86.30;;;;;;4809136;29;87124;-73
2022/11/27 14:51:21;;;;;;;8.38;3.80;;;7.10;86.20;;;;;;4813620;29;87879;-74
2022/11/27 14:53:50;;;;;;;6.82;3.30;;;7.10;86.20;;;;;;4808427;29;87085;-73
2022/11/27 14:56:17;;;;;;;8.02;3.33;;;7.00;86.50;;;;;;4812837;29;87741;-73
2022/11/27 14:58:51;;;;;;;8.25;3.55;;;7.00;86.90;;;;;;4810917;29;86945;-72
2022/11/27 15:01:25;;;;;;;8.68;3.88;;;6.80;87.30;;;;;;4812761;29;86253;-74
2022/11/27 15:03:59;;;;;;;6.50;3.42;;;6.70;87.80;;;;;;4814037;29;86278;-71
2022/11/27 15:06:30;;;;;;;8.32;3.90;;;6.70;88.20;;;;;;4809699;29;89070;-74
2022/11/27 15:08:56;;;;;;;;;;;6.60;88.50;;;;;;4809295;29;87443;-73
2022/11/27 15:11:22;;;;;;;8.35;3.85;;;6.50;88.90;;;;;;4801434;29;87868;-73
2022/11/27 15:13:56;;;;;;;8.70;3.92;;;6.50;89.00;;;;;;4809202;29;86202;-74
2022/11/27 15:16:25;;;;;;;8.95;4.32;;;6.40;89.50;;;;;;4814148;29;87388;-74
2022/11/27 15:19:01;;;;;;;11.52;4.18;;;6.30;89.80;;;;;;4813725;29;88374;-75
2022/11/27 15:21:28;;;;;;;10.13;4.45;;;6.20;90.10;;;;;;4816143;29;87073;-74
2022/11/27 15:23:55;;;;;;;7.93;3.95;;;6.20;90.00;;;;;;4814990;29;87146;-72
2022/11/27 15:26:38;;;;;;;10.35;4.82;;;6.20;90.00;;;;;;4815549;29;86985;-75
2022/11/27 15:29:43;;;;;;;12.60;5.55;;;6.10;90.20;;;;;;4816854;29;86325;-75
2022/11/27 15:32:23;;;;;;;13.45;6.97;;;6.10;90.50;;;;;;4801191;29;87628;-73
2022/11/27 15:34:50;;;;;;;12.55;6.15;;;6.00;90.80;;;;;;4817280;29;86709;-74
2022/11/27 15:37:33;;;;;;;10.38;5.38;;;6.00;90.90;;;;;;4815811;29;87485;-75
2022/11/27 15:40:00;;;;;;;14.38;6.35;;;6.00;90.90;;;;;;4815566;29;88458;-72
2022/11/27 15:42:31;;;;;;;15.13;5.47;;;6.00;91.00;;;;;;4817154;29;86851;-74
2022/11/27 15:44:57;;;;;;;10.52;5.38;;;5.90;91.10;;;;;;4816484;29;86629;-71
2022/11/27 15:47:37;;;;;;;11.93;5.22;;;5.90;91.00;;;;;;4816938;29;86542;-74
2022/11/27 15:50:04;;;;;;;12.55;5.53;;;5.90;90.90;;;;;;4815793;29;87149;-74
2022/11/27 15:52:30;;;;;;;10.23;4.78;;;5.90;90.90;;;;;;4817519;29;86462;-74
2022/11/27 15:54:55;;;;;;;15.00;5.72;;;5.80;90.30;;;;;;4814070;29;86545;-76
2022/11/27 15:57:23;;;;;;;15.23;6.30;;;5.80;90.50;;;;;;4816291;29;87341;-74
2022/11/27 15:59:48;;;;;;;15.32;6.53;;;5.80;90.70;;;;;;4816958;29;87166;-74
2022/11/27 16:02:14;;;;;;;14.02;6.57;;;5.70;90.90;;;;;;4817068;29;87992;-73
2022/11/27 16:04:41;;;;;;;12.32;5.82;;;5.80;91.10;;;;;;4817844;29;86361;-74
2022/11/27 16:07:07;;;;;;;12.60;5.70;;;5.80;91.30;;;;;;4815010;29;87745;-74
2022/11/27 16:09:33;;;;;;;12.13;5.40;;;5.70;91.40;;;;;;4817153;29;86779;-75
2022/11/27 16:11:58;;;;;;;10.93;5.53;;;5.70;91.40;;;;;;4817708;29;86619;-75
2022/11/27 16:14:24;;;;;;;10.50;5.50;;;5.70;91.60;;;;;;4816526;29;87058;-73
2022/11/27 16:16:50;;;;;;;13.20;6.60;;;5.60;91.90;;;;;;4816321;29;87272;-74
2022/11/27 16:19:15;;;;;;;16.13;7.20;;;5.60;91.80;;;;;;4817295;29;86347;-73
2022/11/27 16:21:41;;;;;;;13.02;6.22;;;5.70;91.90;;;;;;4815010;29;86350;-75
2022/11/27 16:24:11;;;;;;;13.35;6.38;;;5.60;92.10;;;;;;4812367;29;87871;-74
2022/11/27 16:26:38;;;;;;;13.25;5.85;;;5.60;92.20;;;;;;4816247;29;87397;-73
2022/11/27 16:29:08;;;;;;;11.30;5.43;;;5.60;92.40;;;;;;4816601;29;88780;-75
2022/11/27 16:31:34;;;;;;;;;;;5.60;92.50;;;;;;4816804;29;86976;-75
2022/11/27 16:34:00;;;;;;;11.75;5.35;;;5.60;92.40;;;;;;4817781;29;86388;-74
2022/11/27 16:36:28;;;;;;;11.90;5.40;;;5.60;92.60;;;;;;4815110;29;87100;-74
2022/11/27 16:38:54;;;;;;;11.00;5.13;;;5.70;92.50;;;;;;4817260;29;87140;-74
2022/11/27 16:41:21;;;;;;;9.50;5.07;;;5.60;92.50;;;;;;4815205;29;87036;-74
2022/11/27 16:43:50;;;;;;;10.38;5.10;;;5.70;92.50;;;;;;4815435;29;86008;-74
2022/11/27 16:46:28;;;;;;;12.27;5.40;;;5.80;92.50;;;;;;4816790;29;86547;-74
2022/11/27 16:48:55;;;;;;;10.85;5.28;;;5.80;92.40;;;;;;4813820;29;87004;-73
2022/11/27 16:51:23;;;;;;;14.25;5.75;;;5.80;92.40;;;;;;4816014;29;88081;-74
2022/11/27 16:53:54;;;;;;;15.30;7.35;;;5.80;92.40;;;;;;4816720;29;86821;-75
2022/11/27 16:56:23;;;;;;;14.68;6.53;;;5.80;92.60;;;;;;4815216;29;89984;-74
2022/11/27 16:58:49;;;;;;;14.30;6.57;;;5.80;92.50;;;;;;4816251;29;87550;-74
2022/11/27 17:01:21;;;;;;;18.08;7.03;;;5.80;92.40;;;;;;4816571;29;86338;-74
2022/11/27 17:03:47;;;;;;;13.57;6.53;;;5.80;92.50;;;;;;4812640;29;86234;-74
2022/11/27 17:06:23;;;;;;;15.23;7.50;;;5.80;93.00;;;;;;4815635;29;87461;-75
2022/11/27 17:08:49;;;;;;;15.88;6.72;;;5.70;92.60;;;;;;4816032;29;86326;-74
2022/11/27 17:11:16;;;;;;;40.97;11.07;;;5.70;92.70;;;;;;4816290;29;87153;-74
2022/11/27 17:13:43;;;;;;;45.70;12.10;;;5.70;92.90;;;;;;4814999;29;86733;-73
2022/11/27 17:16:09;;;;;;;21.88;7.18;;;5.70;93.40;;;;;;4814811;29;88221;-72
2022/11/27 17:18:37;;;;;;;30.65;10.02;;;5.70;93.30;;;;;;4812166;29;87326;-73
2022/11/27 17:21:06;;;;;;;19.15;6.97;;;5.80;93.20;;;;;;4814911;29;86828;-74
2022/11/27 17:23:32;;;;;;;20.45;7.80;;;5.80;93.10;;;;;;4817538;29;86338;-73
2022/11/27 17:26:05;;;;;;;32.75;10.27;;;5.80;93.30;;;;;;4812628;29;87351;-73
2022/11/27 17:28:30;;;;;;;19.45;7.70;;;5.70;93.40;;;;;;4816949;29;87095;-75
2022/11/27 17:30:56;;;;;;;19.67;7.93;;;5.80;93.40;;;;;;4816633;29;86300;-74
2022/11/27 17:33:21;;;;;;;15.05;6.90;;;5.80;93.40;;;;;;4816216;29;85812;-74
2022/11/27 17:35:47;;;;;;;17.80;7.63;;;5.80;93.50;;;;;;4817700;29;87716;-74
2022/11/27 17:38:13;;;;;;;17.73;7.28;;;5.80;93.60;;;;;;4815788;29;86701;-73
2022/11/27 17:40:38;;;;;;;15.55;5.78;;;5.80;93.90;;;;;;4816808;29;87871;-74
2022/11/27 17:43:04;;;;;;;13.13;6.18;;;5.80;93.90;;;;;;4816790;29;87263;-74
2022/11/27 17:45:30;;;;;;;19.25;8.27;;;5.80;94.00;;;;;;4816338;29;87240;-74
2022/11/27 17:47:55;;;;;;;15.18;7.57;;;5.80;93.90;;;;;;4817051;29;87116;-74
2022/11/27 17:50:21;;;;;;;14.32;6.95;;;5.80;93.80;;;;;;4817854;29;86220;-72
2022/11/27 17:52:47;;;;;;;19.10;7.13;;;5.90;93.40;;;;;;4817365;29;86756;-74
2022/11/27 17:55:12;;;;;;;14.50;6.55;;;5.90;92.90;;;;;;4816822;29;87158;-75
2022/11/27 17:57:38;;;;;;;16.95;7.47;;;5.90;92.80;;;;;;4819073;29;86956;-75
2022/11/27 18:00:04;;;;;;;14.55;6.93;;;5.90;93.00;;;;;;4812369;29;86281;-72
2022/11/27 18:02:30;;;;;;;12.70;6.15;;;5.90;93.10;;;;;;4810007;29;86266;-74
2022/11/27 18:04:56;;;;;;;16.48;7.20;;;6.00;93.00;;;;;;4809784;29;87596;-74
2022/11/27 18:07:21;;;;;;;18.60;8.50;;;6.00;92.80;;;;;;4815820;29;88015;-73
2022/11/27 18:09:49;;;;;;;17.23;8.32;;;6.10;92.50;;;;;;4813011;29;86753;-73
2022/11/27 18:12:14;;;;;;;17.83;8.43;;;6.10;92.60;;;;;;4813234;29;86869;-74
2022/11/27 18:14:40;;;;;;;16.48;7.22;;;6.10;92.50;;;;;;4809890;29;87389;-74
2022/11/27 18:17:06;;;;;;;17.77;7.40;;;6.10;92.40;;;;;;4813038;29;86850;-74